createdAt,value
2024-05-09T00:00:03.666Z,5.64
2024-05-09T00:01:02.844Z,5.61
2024-05-09T00:02:02.864Z,5.62
2024-05-09T00:03:02.845Z,5.61
2024-05-09T00:04:02.862Z,5.59
2024-05-09T00:05:03.103Z,5.56
2024-05-09T00:06:02.954Z,5.54
2024-05-09T00:07:02.753Z,5.56
2024-05-09T00:08:02.804Z,5.62
2024-05-09T00:09:02.769Z,5.66
2024-05-09T00:10:04.134Z,5.73
2024-05-09T00:11:02.790Z,5.80
2024-05-09T00:12:02.851Z,5.84
2024-05-09T00:13:02.703Z,5.83
2024-05-09T00:14:02.724Z,5.71
2024-05-09T00:15:02.673Z,5.65
2024-05-09T00:16:02.672Z,5.54
2024-05-09T00:17:02.723Z,5.47
2024-05-09T00:18:03.397Z,5.39
2024-05-09T00:19:02.822Z,5.39
2024-05-09T00:20:03.262Z,5.36
2024-05-09T00:21:02.668Z,5.38
2024-05-09T00:22:02.624Z,5.38
2024-05-09T00:23:02.642Z,5.39
2024-05-09T00:24:02.595Z,5.38
2024-05-09T00:25:02.578Z,5.39
2024-05-09T00:26:02.626Z,5.36
2024-05-09T00:27:02.554Z,5.38
2024-05-09T00:28:02.565Z,5.35
2024-05-09T00:29:02.654Z,5.41
2024-05-09T00:30:04.136Z,5.39
2024-05-09T00:31:02.533Z,5.41
2024-05-09T00:32:02.635Z,5.41
2024-05-09T00:33:02.663Z,5.38
2024-05-09T00:34:02.689Z,5.41
2024-05-09T00:35:02.552Z,5.41
2024-05-09T00:36:02.473Z,5.41
2024-05-09T00:37:02.472Z,5.33
2024-05-09T00:38:02.603Z,5.30
2024-05-09T00:39:02.431Z,5.29
2024-05-09T00:40:02.434Z,5.23
2024-05-09T00:41:02.448Z,5.23
2024-05-09T00:42:02.425Z,5.18
2024-05-09T00:43:02.412Z,5.15
2024-05-09T00:44:02.476Z,5.10
2024-05-09T00:45:02.378Z,5.05
2024-05-09T00:46:02.376Z,5.02
2024-05-09T00:47:02.390Z,5.02
2024-05-09T00:48:02.599Z,5.08
2024-05-09T00:49:02.444Z,5.10
2024-05-09T00:50:03.172Z,5.08
2024-05-09T00:51:02.387Z,5.07
2024-05-09T00:52:02.301Z,5.02
2024-05-09T00:53:02.328Z,5.00
2024-05-09T00:54:02.275Z,5.04
2024-05-09T00:55:02.293Z,5.07
2024-05-09T00:56:02.355Z,5.08
2024-05-09T00:57:02.257Z,5.08
2024-05-09T00:58:02.241Z,5.08
2024-05-09T00:59:02.261Z,5.05
2024-05-09T01:00:02.286Z,5.08
2024-05-09T01:01:02.266Z,5.08
2024-05-09T01:02:02.336Z,5.15
2024-05-09T01:03:02.519Z,5.20
2024-05-09T01:04:02.246Z,5.18
2024-05-09T01:05:02.309Z,5.08
2024-05-09T01:06:02.190Z,4.99
2024-05-09T01:07:02.144Z,4.96
2024-05-09T01:08:02.258Z,4.92
2024-05-09T01:09:02.119Z,4.96
2024-05-09T01:10:02.409Z,4.96
2024-05-09T01:11:02.198Z,4.96
2024-05-09T01:12:02.303Z,4.94
2024-05-09T01:13:02.093Z,4.96
2024-05-09T01:14:02.187Z,4.99
2024-05-09T01:15:02.105Z,5.12
2024-05-09T01:16:02.134Z,5.29
2024-05-09T01:17:02.062Z,5.38
2024-05-09T01:18:02.457Z,5.43
2024-05-09T01:19:02.124Z,5.46
2024-05-09T01:20:02.139Z,5.36
2024-05-09T01:21:02.112Z,5.18
2024-05-09T01:22:01.998Z,5.07
2024-05-09T01:23:02.067Z,4.97
2024-05-09T01:24:01.981Z,4.82
2024-05-09T01:25:01.955Z,4.73
2024-05-09T01:26:02.031Z,4.71
2024-05-09T01:27:01.929Z,4.68
2024-05-09T01:28:01.940Z,4.71
2024-05-09T01:29:01.981Z,4.68
2024-05-09T01:30:01.926Z,4.68
2024-05-09T01:31:01.899Z,4.71
2024-05-09T01:32:01.983Z,4.71
2024-05-09T01:33:02.198Z,4.63
2024-05-09T01:34:01.913Z,4.62
2024-05-09T01:35:01.858Z,4.60
2024-05-09T01:36:01.863Z,4.63
2024-05-09T01:37:01.833Z,4.60
2024-05-09T01:38:01.906Z,4.62
2024-05-09T01:39:01.809Z,4.62
2024-05-09T01:40:01.809Z,4.66
2024-05-09T01:41:01.844Z,4.67
2024-05-09T01:42:01.834Z,4.67
2024-05-09T01:43:01.805Z,4.63
2024-05-09T01:44:01.850Z,4.67
2024-05-09T01:45:01.756Z,4.66
2024-05-09T01:46:01.741Z,4.63
2024-05-09T01:47:01.782Z,4.56
2024-05-09T01:48:02.708Z,4.56
2024-05-09T01:49:01.818Z,4.56
2024-05-09T01:50:01.812Z,4.58
2024-05-09T01:51:01.753Z,4.55
2024-05-09T01:52:01.717Z,4.58
2024-05-09T01:53:01.750Z,4.62
2024-05-09T01:54:01.677Z,4.62
2024-05-09T01:55:04.618Z,4.60
2024-05-09T01:56:01.757Z,4.55
2024-05-09T01:57:01.649Z,4.53
2024-05-09T01:58:01.624Z,4.50
2024-05-09T01:59:01.621Z,4.40
2024-05-09T02:00:01.598Z,4.35
2024-05-09T02:01:01.631Z,4.30
2024-05-09T02:02:01.807Z,4.20
2024-05-09T02:03:02.029Z,4.16
2024-05-09T02:04:01.879Z,4.14
2024-05-09T02:05:01.649Z,4.10
2024-05-09T02:06:01.782Z,4.13
2024-05-09T02:07:01.517Z,4.14
2024-05-09T02:08:01.608Z,4.19
2024-05-09T02:09:01.500Z,4.26
2024-05-09T02:10:01.512Z,4.30
2024-05-09T02:11:01.611Z,4.31
2024-05-09T02:12:01.594Z,4.30
2024-05-09T02:13:01.474Z,4.23
2024-05-09T02:14:01.475Z,4.26
2024-05-09T02:15:01.463Z,4.24
2024-05-09T02:16:01.433Z,4.17
2024-05-09T02:17:01.534Z,4.13
2024-05-09T02:18:01.583Z,4.06
2024-05-09T02:19:01.660Z,4.10
2024-05-09T02:20:01.490Z,4.10
2024-05-09T02:21:01.561Z,4.08
2024-05-09T02:22:01.371Z,4.13
2024-05-09T02:23:01.400Z,4.13
2024-05-09T02:24:01.392Z,4.13
2024-05-09T02:25:01.361Z,4.13
2024-05-09T02:26:01.399Z,4.12
2024-05-09T02:27:01.318Z,4.06
2024-05-09T02:28:01.365Z,4.04
2024-05-09T02:29:01.331Z,3.96
2024-05-09T02:30:01.313Z,3.94
2024-05-09T02:31:01.278Z,3.88
2024-05-09T02:32:01.414Z,3.94
2024-05-09T02:33:01.510Z,3.95
2024-05-09T02:34:01.713Z,4.02
2024-05-09T02:35:01.288Z,4.06
2024-05-09T02:36:01.229Z,4.10
2024-05-09T02:37:01.218Z,4.10
2024-05-09T02:38:02.190Z,4.10
2024-05-09T02:39:01.237Z,4.10
2024-05-09T02:40:01.201Z,4.06
2024-05-09T02:41:01.216Z,4.04
2024-05-09T02:42:01.172Z,4.02
2024-05-09T02:43:01.174Z,4.04
2024-05-09T02:44:01.224Z,4.06
2024-05-09T02:45:01.164Z,4.10
2024-05-09T02:46:01.136Z,4.12
2024-05-09T02:47:01.193Z,4.06
2024-05-09T02:48:01.935Z,3.99
2024-05-09T02:49:01.258Z,3.94
2024-05-09T02:50:01.137Z,3.88
2024-05-09T02:51:01.109Z,3.84
2024-05-09T02:52:01.128Z,3.91
2024-05-09T02:53:01.213Z,3.91
2024-05-09T02:54:01.040Z,3.95
2024-05-09T02:55:01.041Z,3.96
2024-05-09T02:56:01.110Z,3.96
2024-05-09T02:57:01.036Z,3.95
2024-05-09T02:58:00.976Z,3.95
2024-05-09T02:59:01.018Z,3.95
2024-05-09T03:00:00.996Z,3.96
2024-05-09T03:01:01.001Z,3.98
2024-05-09T03:02:01.085Z,3.95
2024-05-09T03:03:01.186Z,3.91
2024-05-09T03:04:01.054Z,3.81
2024-05-09T03:05:00.924Z,3.76
2024-05-09T03:06:00.949Z,3.66
2024-05-09T03:07:00.924Z,3.60
2024-05-09T03:08:01.024Z,3.62
2024-05-09T03:09:00.839Z,3.68
2024-05-09T03:10:00.837Z,3.74
2024-05-09T03:11:00.917Z,3.76
2024-05-09T03:12:00.927Z,3.78
2024-05-09T03:13:00.810Z,3.80
2024-05-09T03:14:00.850Z,3.80
2024-05-09T03:15:00.776Z,3.81
2024-05-09T03:16:00.788Z,3.80
2024-05-09T03:17:00.796Z,3.77
2024-05-09T03:18:01.483Z,3.74
2024-05-09T03:19:00.820Z,3.70
2024-05-09T03:20:00.829Z,3.68
2024-05-09T03:21:00.961Z,3.68
2024-05-09T03:22:00.698Z,3.69
2024-05-09T03:23:00.736Z,3.70
2024-05-09T03:24:00.681Z,3.74
2024-05-09T03:25:00.706Z,3.74
2024-05-09T03:26:00.771Z,3.74
2024-05-09T03:27:00.652Z,3.73
2024-05-09T03:28:00.676Z,3.65
2024-05-09T03:29:00.681Z,3.63
2024-05-09T03:30:00.988Z,3.62
2024-05-09T03:31:00.606Z,3.59
2024-05-09T03:32:00.732Z,3.55
2024-05-09T03:33:00.841Z,3.50
2024-05-09T03:34:00.764Z,3.51
2024-05-09T03:35:00.641Z,3.53
2024-05-09T03:36:00.565Z,3.51
2024-05-09T03:37:00.617Z,3.50
2024-05-09T03:38:00.603Z,3.56
2024-05-09T03:39:00.680Z,3.58
2024-05-09T03:40:00.509Z,3.63
2024-05-09T03:41:00.612Z,3.65
2024-05-09T03:42:00.495Z,3.60
2024-05-09T03:43:00.524Z,3.60
2024-05-09T03:44:00.576Z,3.60
2024-05-09T03:45:00.508Z,3.62
2024-05-09T03:46:00.481Z,3.60
2024-05-09T03:47:00.476Z,3.59
2024-05-09T03:48:00.658Z,3.65
2024-05-09T03:49:00.513Z,3.65
2024-05-09T03:50:00.447Z,3.68
2024-05-09T03:51:00.451Z,3.66
2024-05-09T03:52:00.386Z,3.74
2024-05-09T03:53:00.851Z,3.77
2024-05-09T03:54:00.381Z,3.81
2024-05-09T03:55:00.369Z,3.88
2024-05-09T03:56:00.443Z,3.94
2024-05-09T03:57:00.383Z,3.99
2024-05-09T03:58:00.373Z,4.04
2024-05-09T03:59:00.339Z,4.10
2024-05-09T04:00:00.309Z,4.16
2024-05-09T04:01:00.331Z,4.16
2024-05-09T04:02:00.449Z,4.14
2024-05-09T04:03:00.470Z,4.14
2024-05-09T04:04:00.301Z,4.14
2024-05-09T04:05:00.357Z,4.14
2024-05-09T04:06:00.253Z,4.14
2024-05-09T04:07:00.256Z,4.12
2024-05-09T04:08:00.328Z,4.06
2024-05-09T04:09:00.241Z,4.06
2024-05-09T04:10:00.276Z,4.06
2024-05-09T04:11:00.297Z,4.06
2024-05-09T04:12:00.353Z,4.12
2024-05-09T04:13:00.183Z,4.13
2024-05-09T04:14:00.221Z,4.16
2024-05-09T04:15:00.181Z,4.16
2024-05-09T04:16:00.158Z,4.16
2024-05-09T04:17:00.175Z,4.17
2024-05-09T04:18:01.058Z,4.22
2024-05-09T04:19:00.184Z,4.24
2024-05-09T04:20:00.278Z,4.31
2024-05-09T04:21:00.163Z,4.35
2024-05-09T04:22:00.098Z,4.41
2024-05-09T04:23:00.108Z,4.49
2024-05-09T04:24:00.066Z,4.55
2024-05-09T04:25:00.140Z,4.60
2024-05-09T04:26:00.080Z,4.67
2024-05-09T04:27:00.046Z,4.68
2024-05-09T04:28:00.034Z,4.71
2024-05-09T04:29:00.035Z,4.74
2024-05-09T04:30:00.037Z,4.78
2024-05-09T04:30:59.993Z,4.82
2024-05-09T04:32:00.122Z,4.84
2024-05-09T04:33:00.083Z,4.84
2024-05-09T04:34:00.072Z,4.90
2024-05-09T04:35:00.400Z,5.02
2024-05-09T04:35:59.939Z,5.11
2024-05-09T04:36:59.931Z,5.25
2024-05-09T04:37:59.971Z,5.39
2024-05-09T04:39:00.794Z,5.50
2024-05-09T04:39:59.944Z,5.65
2024-05-09T04:40:59.981Z,5.69
2024-05-09T04:41:59.876Z,5.73
2024-05-09T04:42:59.894Z,5.79
2024-05-09T04:43:59.903Z,5.86
2024-05-09T04:44:59.853Z,5.93
2024-05-09T04:45:59.834Z,5.97
2024-05-09T04:46:59.864Z,6.12
2024-05-09T04:48:00.232Z,6.39
2024-05-09T04:48:59.944Z,6.63
2024-05-09T04:49:59.825Z,6.87
2024-05-09T04:50:59.864Z,7.15
2024-05-09T04:51:59.780Z,7.45
2024-05-09T04:52:59.815Z,7.85
2024-05-09T04:53:59.781Z,8.27
2024-05-09T04:54:59.751Z,8.46
2024-05-09T04:55:59.826Z,8.53
2024-05-09T04:56:59.752Z,8.74
2024-05-09T04:57:59.750Z,8.99
2024-05-09T04:58:59.732Z,8.99
2024-05-09T04:59:59.699Z,8.81
2024-05-09T05:00:59.733Z,8.91
2024-05-09T05:01:59.781Z,9.10
2024-05-09T05:03:00.004Z,9.13
2024-05-09T05:03:59.762Z,9.23
2024-05-09T05:04:59.785Z,9.32
2024-05-09T05:05:59.843Z,9.44
2024-05-09T05:07:02.696Z,9.47
2024-05-09T05:07:59.748Z,9.54
2024-05-09T05:08:59.605Z,9.47
2024-05-09T05:09:59.590Z,9.48
2024-05-09T05:10:59.720Z,9.58
2024-05-09T05:11:59.757Z,9.74
2024-05-09T05:12:59.562Z,9.76
2024-05-09T05:13:59.596Z,9.86
2024-05-09T05:14:59.554Z,9.94
2024-05-09T05:15:59.533Z,9.87
2024-05-09T05:16:59.569Z,9.77
2024-05-09T05:17:59.698Z,9.58
2024-05-09T05:18:59.561Z,9.50
2024-05-09T05:19:59.627Z,9.44
2024-05-09T05:20:59.566Z,9.44
2024-05-09T05:21:59.483Z,9.29
2024-05-09T05:22:59.543Z,9.29
2024-05-09T05:23:59.451Z,9.23
2024-05-09T05:24:59.496Z,9.19
2024-05-09T05:25:59.521Z,9.25
2024-05-09T05:26:59.410Z,9.34
2024-05-09T05:27:59.392Z,9.43
2024-05-09T05:28:59.421Z,9.41
2024-05-09T05:29:59.387Z,9.41
2024-05-09T05:30:59.414Z,9.43
2024-05-09T05:31:59.431Z,9.47
2024-05-09T05:32:59.472Z,9.40
2024-05-09T05:33:59.374Z,9.40
2024-05-09T05:34:59.436Z,9.44
2024-05-09T05:35:59.334Z,9.32
2024-05-09T05:36:59.310Z,9.19
2024-05-09T05:37:59.322Z,8.97
2024-05-09T05:38:59.318Z,8.84
2024-05-09T05:39:59.324Z,8.82
2024-05-09T05:40:59.293Z,8.78
2024-05-09T05:41:59.246Z,8.79
2024-05-09T05:42:59.246Z,8.84
2024-05-09T05:43:59.341Z,8.84
2024-05-09T05:44:59.246Z,8.85
2024-05-09T05:45:59.218Z,8.92
2024-05-09T05:46:59.251Z,8.94
2024-05-09T05:47:59.345Z,8.97
2024-05-09T05:48:59.367Z,9.08
2024-05-09T05:49:59.284Z,9.16
2024-05-09T05:51:01.896Z,9.11
2024-05-09T05:51:59.150Z,9.13
2024-05-09T05:52:59.151Z,9.16
2024-05-09T05:53:59.139Z,9.19
2024-05-09T05:54:59.119Z,9.21
2024-05-09T05:55:59.156Z,9.23
2024-05-09T05:56:59.101Z,9.28
2024-05-09T05:57:59.091Z,9.37
2024-05-09T05:58:59.116Z,9.44
2024-05-09T05:59:59.058Z,9.50
2024-05-09T06:00:59.109Z,9.44
2024-05-09T06:01:59.049Z,9.46
2024-05-09T06:02:59.159Z,9.44
2024-05-09T06:03:59.119Z,9.40
2024-05-09T06:04:59.091Z,9.31
2024-05-09T06:05:59.159Z,9.28
2024-05-09T06:06:58.997Z,9.32
2024-05-09T06:07:59.559Z,9.44
2024-05-09T06:08:59.052Z,9.54
2024-05-09T06:09:58.955Z,9.61
2024-05-09T06:10:59.048Z,9.65
2024-05-09T06:11:58.988Z,9.65
2024-05-09T06:12:59.656Z,9.72
2024-05-09T06:13:58.941Z,9.69
2024-05-09T06:14:58.914Z,9.79
2024-05-09T06:15:58.912Z,9.83
2024-05-09T06:16:58.948Z,9.80
2024-05-09T06:17:59.331Z,9.83
2024-05-09T06:19:05.924Z,9.86
2024-05-09T06:19:58.893Z,9.92
2024-05-09T06:20:58.859Z,9.99
2024-05-09T06:21:58.862Z,10.04
2024-05-09T06:22:58.885Z,10.07
2024-05-09T06:23:58.818Z,10.10
2024-05-09T06:24:58.801Z,10.20
2024-05-09T06:25:58.839Z,10.26
2024-05-09T06:26:58.816Z,10.37
2024-05-09T06:27:58.790Z,10.38
2024-05-09T06:28:58.793Z,10.42
2024-05-09T06:29:58.763Z,10.51
2024-05-09T06:30:58.763Z,10.59
2024-05-09T06:32:00.213Z,10.68
2024-05-09T06:32:58.974Z,10.75
2024-05-09T06:33:58.777Z,10.86
2024-05-09T06:34:58.743Z,10.92
2024-05-09T06:35:58.706Z,11.00
2024-05-09T06:36:58.680Z,11.12
2024-05-09T06:37:58.713Z,11.15
2024-05-09T06:38:58.686Z,11.25
2024-05-09T06:39:58.646Z,11.23
2024-05-09T06:40:58.666Z,11.08
2024-05-09T06:41:58.615Z,10.89
2024-05-09T06:42:58.619Z,10.82
2024-05-09T06:43:58.668Z,10.93
2024-05-09T06:44:58.621Z,11.08
2024-05-09T06:45:58.619Z,11.22
2024-05-09T06:46:59.941Z,11.30
2024-05-09T06:47:58.692Z,11.37
2024-05-09T06:48:58.740Z,11.50
2024-05-09T06:49:58.589Z,11.65
2024-05-09T06:50:58.584Z,11.66
2024-05-09T06:51:58.527Z,11.77
2024-05-09T06:52:58.544Z,11.87
2024-05-09T06:53:58.497Z,12.00
2024-05-09T06:54:58.525Z,11.95
2024-05-09T06:55:58.516Z,12.00
2024-05-09T06:56:58.494Z,12.20
2024-05-09T06:57:58.468Z,12.22
2024-05-09T06:58:58.488Z,12.31
2024-05-09T06:59:58.459Z,12.49
2024-05-09T07:00:58.444Z,12.70
2024-05-09T07:01:58.434Z,12.94
2024-05-09T07:03:00.126Z,13.16
2024-05-09T07:03:58.480Z,13.42
2024-05-09T07:04:58.608Z,13.65
2024-05-09T07:05:58.433Z,13.95
2024-05-09T07:06:58.374Z,14.26
2024-05-09T07:07:58.380Z,14.51
2024-05-09T07:08:58.358Z,14.72
2024-05-09T07:09:58.322Z,14.65
2024-05-09T07:10:58.397Z,14.47
2024-05-09T07:11:58.412Z,14.79
2024-05-09T07:12:58.334Z,15.10
2024-05-09T07:13:58.344Z,15.39
2024-05-09T07:14:58.283Z,15.67
2024-05-09T07:15:58.270Z,15.92
2024-05-09T07:16:58.409Z,16.20
2024-05-09T07:17:58.361Z,16.24
2024-05-09T07:18:58.364Z,16.29
2024-05-09T07:19:58.242Z,16.54
2024-05-09T07:20:58.270Z,16.78
2024-05-09T07:21:58.214Z,16.86
2024-05-09T07:22:58.268Z,17.01
2024-05-09T07:23:58.187Z,16.89
2024-05-09T07:24:58.200Z,17.26
2024-05-09T07:25:58.232Z,17.67
2024-05-09T07:26:58.181Z,17.67
2024-05-09T07:27:58.178Z,17.24
2024-05-09T07:28:58.193Z,17.57
2024-05-09T07:29:58.125Z,18.13
2024-05-09T07:30:58.108Z,18.44
2024-05-09T07:31:58.127Z,18.89
2024-05-09T07:32:58.388Z,19.22
2024-05-09T07:33:58.186Z,19.45
2024-05-09T07:34:58.111Z,19.66
2024-05-09T07:35:58.080Z,19.64
2024-05-09T07:36:58.068Z,19.63
2024-05-09T07:37:58.156Z,19.40
2024-05-09T07:38:58.025Z,19.62
2024-05-09T07:39:58.026Z,18.71
2024-05-09T07:40:58.516Z,18.58
2024-05-09T07:41:58.018Z,19.08
2024-05-09T07:42:57.975Z,19.63
2024-05-09T07:43:58.085Z,20.22
2024-05-09T07:45:14.570Z,20.78
2024-05-09T07:46:23.004Z,21.43
2024-05-09T07:48:28.874Z,21.91
2024-05-09T07:52:22.590Z,21.61
2024-05-09T07:53:42.088Z,22.18
2024-05-09T07:53:53.424Z,22.35
2024-05-09T07:54:45.058Z,22.38
2024-05-09T07:55:45.137Z,22.75
2024-05-09T07:56:45.034Z,23.47
2024-05-09T07:57:44.968Z,23.86
2024-05-09T07:58:44.954Z,23.68
2024-05-09T07:59:44.920Z,23.91
2024-05-09T08:00:45.089Z,24.02
2024-05-09T08:01:45.010Z,24.24
2024-05-09T08:02:44.909Z,24.33
2024-05-09T08:03:45.057Z,24.50
2024-05-09T08:04:44.958Z,24.23
2024-05-09T08:05:44.868Z,24.43
2024-05-09T08:06:44.860Z,24.55
2024-05-09T08:07:44.797Z,24.66
2024-05-09T08:08:44.811Z,24.20
2024-05-09T08:09:44.837Z,23.09
2024-05-09T08:10:44.858Z,21.76
2024-05-09T08:11:44.803Z,20.85
2024-05-09T08:12:44.766Z,20.25
2024-05-09T08:13:44.803Z,19.86
2024-05-09T08:14:44.760Z,19.79
2024-05-09T08:15:44.852Z,20.36
2024-05-09T08:16:44.708Z,21.11
2024-05-09T08:17:44.847Z,21.66
2024-05-09T08:18:44.814Z,22.60
2024-05-09T08:19:44.747Z,23.36
2024-05-09T08:20:44.661Z,24.02
2024-05-09T08:21:44.706Z,24.80
2024-05-09T08:22:44.632Z,25.51
2024-05-09T08:23:44.664Z,26.09
2024-05-09T08:24:44.654Z,25.96
2024-05-09T08:25:44.598Z,25.51
2024-05-09T08:26:44.594Z,25.88
2024-05-09T08:27:44.637Z,25.98
2024-05-09T08:28:44.602Z,26.07
2024-05-09T08:29:44.676Z,24.74
2024-05-09T08:30:44.833Z,23.27
2024-05-09T08:31:44.716Z,23.13
2024-05-09T08:32:44.725Z,23.68
2024-05-09T08:33:44.760Z,24.40
2024-05-09T08:34:44.679Z,24.88
2024-05-09T08:35:44.510Z,25.47
2024-05-09T08:36:44.610Z,26.03
2024-05-09T08:37:44.567Z,26.62
2024-05-09T08:38:44.482Z,26.03
2024-05-09T08:39:44.528Z,25.14
2024-05-09T08:40:44.638Z,25.16
2024-05-09T08:41:44.460Z,24.91
2024-05-09T08:42:44.496Z,24.42
2024-05-09T08:43:44.462Z,23.86
2024-05-09T08:44:44.416Z,23.09
2024-05-09T08:45:45.443Z,23.05
2024-05-09T08:46:44.428Z,23.56
2024-05-09T08:47:44.444Z,23.81
2024-05-09T08:48:44.584Z,24.13
2024-05-09T08:49:44.391Z,24.45
2024-05-09T08:50:45.510Z,24.76
2024-05-09T08:51:44.409Z,25.08
2024-05-09T08:52:44.318Z,25.35
2024-05-09T08:53:44.353Z,25.53
2024-05-09T08:54:44.390Z,25.84
2024-05-09T08:55:44.728Z,25.11
2024-05-09T08:56:44.292Z,24.81
2024-05-09T08:57:44.283Z,24.96
2024-05-09T08:58:44.271Z,25.38
2024-05-09T08:59:44.248Z,25.65
2024-05-09T09:00:45.008Z,25.81
2024-05-09T09:01:44.429Z,25.73
2024-05-09T09:02:44.707Z,26.10
2024-05-09T09:03:44.388Z,26.45
2024-05-09T09:04:44.341Z,26.77
2024-05-09T09:05:44.264Z,25.53
2024-05-09T09:06:44.443Z,25.50
2024-05-09T09:07:44.179Z,25.90
2024-05-09T09:08:44.154Z,26.33
2024-05-09T09:09:44.351Z,26.36
2024-05-09T09:10:44.278Z,26.77
2024-05-09T09:11:44.175Z,26.90
2024-05-09T09:12:44.281Z,26.99
2024-05-09T09:13:44.118Z,27.36
2024-05-09T09:14:44.127Z,27.63
2024-05-09T09:15:44.166Z,27.63
2024-05-09T09:16:44.086Z,26.62
2024-05-09T09:17:44.178Z,25.40
2024-05-09T09:18:44.326Z,25.32
2024-05-09T09:19:44.113Z,25.48
2024-05-09T09:20:44.156Z,25.51
2024-05-09T09:21:44.110Z,25.99
2024-05-09T09:22:44.012Z,26.45
2024-05-09T09:23:44.033Z,26.90
2024-05-09T09:24:44.084Z,26.88
2024-05-09T09:25:43.998Z,26.93
2024-05-09T09:26:43.990Z,27.15
2024-05-09T09:27:43.997Z,27.39
2024-05-09T09:28:43.993Z,27.68
2024-05-09T09:29:43.944Z,27.55
2024-05-09T09:30:44.029Z,27.59
2024-05-09T09:31:43.969Z,27.89
2024-05-09T09:32:44.009Z,28.29
2024-05-09T09:33:44.190Z,28.75
2024-05-09T09:34:43.993Z,28.96
2024-05-09T09:35:43.914Z,29.14
2024-05-09T09:36:43.935Z,27.18
2024-05-09T09:37:43.887Z,27.55
2024-05-09T09:38:43.948Z,26.36
2024-05-09T09:39:43.860Z,26.92
2024-05-09T09:40:48.284Z,26.34
2024-05-09T09:41:43.836Z,26.45
2024-05-09T09:42:43.875Z,26.65
2024-05-09T09:43:43.802Z,26.06
2024-05-09T09:44:47.756Z,25.98
2024-05-09T09:45:43.984Z,26.58
2024-05-09T09:46:43.783Z,25.59
2024-05-09T09:47:43.856Z,25.43
2024-05-09T09:48:43.862Z,24.73
2024-05-09T09:49:43.869Z,25.04
2024-05-09T09:50:43.724Z,25.16
2024-05-09T09:51:43.881Z,25.55
2024-05-09T09:52:43.740Z,25.84
2024-05-09T09:53:43.722Z,25.96
2024-05-09T09:54:43.725Z,26.13
2024-05-09T09:55:43.695Z,26.53
2024-05-09T09:56:43.687Z,27.15
2024-05-09T09:57:43.800Z,27.54
2024-05-09T09:58:43.646Z,27.83
2024-05-09T09:59:43.636Z,28.07
2024-05-09T10:00:43.845Z,28.23
2024-05-09T10:01:43.800Z,28.39
2024-05-09T10:02:43.659Z,28.51
2024-05-09T10:03:43.720Z,27.71
2024-05-09T10:04:43.718Z,27.73
2024-05-09T10:05:46.316Z,27.64
2024-05-09T10:06:43.602Z,27.47
2024-05-09T10:07:43.571Z,27.17
2024-05-09T10:08:43.547Z,27.26
2024-05-09T10:09:43.596Z,27.87
2024-05-09T10:10:43.899Z,28.38
2024-05-09T10:11:49.106Z,28.59
2024-05-09T10:12:43.528Z,28.79
2024-05-09T10:13:43.499Z,28.75
2024-05-09T10:14:43.475Z,28.37
2024-05-09T10:15:44.206Z,28.41
2024-05-09T10:16:43.464Z,28.63
2024-05-09T10:17:43.536Z,28.19
2024-05-09T10:18:43.776Z,28.22
2024-05-09T10:19:43.481Z,28.22
2024-05-09T10:20:43.476Z,28.17
2024-05-09T10:21:43.500Z,28.04
2024-05-09T10:22:43.403Z,28.00
2024-05-09T10:23:44.176Z,28.01
2024-05-09T10:24:43.427Z,27.59
2024-05-09T10:25:43.387Z,27.75
2024-05-09T10:26:43.407Z,27.74
2024-05-09T10:27:43.362Z,27.14
2024-05-09T10:28:43.366Z,27.40
2024-05-09T10:29:43.354Z,27.73
2024-05-09T10:30:43.460Z,27.92
2024-05-09T10:31:43.565Z,28.23
2024-05-09T10:32:43.445Z,28.37
2024-05-09T10:33:43.467Z,28.52
2024-05-09T10:34:43.444Z,28.37
2024-05-09T10:35:43.262Z,28.59
2024-05-09T10:36:43.363Z,28.84
2024-05-09T10:37:43.271Z,28.91
2024-05-09T10:38:43.359Z,28.82
2024-05-09T10:39:43.311Z,28.64
2024-05-09T10:40:43.321Z,28.74
2024-05-09T10:41:43.211Z,28.91
2024-05-09T10:42:43.299Z,29.27
2024-05-09T10:43:43.199Z,29.34
2024-05-09T10:44:43.182Z,29.75
2024-05-09T10:45:43.184Z,28.79
2024-05-09T10:46:43.146Z,28.86
2024-05-09T10:47:43.332Z,28.89
2024-05-09T10:48:43.480Z,28.89
2024-05-09T10:49:43.175Z,29.41
2024-05-09T10:50:43.112Z,29.66
2024-05-09T10:51:43.139Z,29.01
2024-05-09T10:52:43.108Z,29.07
2024-05-09T10:53:43.236Z,29.44
2024-05-09T10:54:43.128Z,29.79
2024-05-09T10:55:43.053Z,30.05
2024-05-09T10:56:43.085Z,30.02
2024-05-09T10:57:43.147Z,28.98
2024-05-09T10:58:43.145Z,28.75
2024-05-09T10:59:43.050Z,28.94
2024-05-09T11:00:43.141Z,28.85
2024-05-09T11:01:43.195Z,28.93
2024-05-09T11:02:43.398Z,28.59
2024-05-09T11:03:43.239Z,28.37
2024-05-09T11:04:43.080Z,28.23
2024-05-09T11:05:43.275Z,28.05
2024-05-09T11:06:43.007Z,27.86
2024-05-09T11:07:42.950Z,27.25
2024-05-09T11:08:42.933Z,26.43
2024-05-09T11:09:42.992Z,25.75
2024-05-09T11:10:43.029Z,25.06
2024-05-09T11:11:43.018Z,24.38
2024-05-09T11:12:42.936Z,23.99
2024-05-09T11:13:42.864Z,23.36
2024-05-09T11:14:42.878Z,23.08
2024-05-09T11:15:42.954Z,22.81
2024-05-09T11:16:42.846Z,22.04
2024-05-09T11:17:42.906Z,22.22
2024-05-09T11:18:42.991Z,23.12
2024-05-09T11:19:42.910Z,24.08
2024-05-09T11:20:42.882Z,24.93
2024-05-09T11:21:42.990Z,25.60
2024-05-09T11:22:42.781Z,26.29
2024-05-09T11:23:42.773Z,25.98
2024-05-09T11:24:42.804Z,25.40
2024-05-09T11:25:42.774Z,24.73
2024-05-09T11:26:42.727Z,24.02
2024-05-09T11:27:42.783Z,23.41
2024-05-09T11:28:42.730Z,23.00
2024-05-09T11:29:42.727Z,22.78
2024-05-09T11:30:42.732Z,23.66
2024-05-09T11:31:42.789Z,24.57
2024-05-09T11:33:42.821Z,24.63
2024-05-09T11:34:42.868Z,24.30
2024-05-09T11:35:42.671Z,24.85
2024-05-09T11:36:42.746Z,25.90
2024-05-09T11:37:42.635Z,26.74
2024-05-09T11:38:42.711Z,27.36
2024-05-09T11:39:42.686Z,27.59
2024-05-09T11:40:42.754Z,27.85
2024-05-09T11:41:42.632Z,27.90
2024-05-09T11:42:42.599Z,28.32
2024-05-09T11:43:42.584Z,28.86
2024-05-09T11:44:42.610Z,28.98
2024-05-09T11:45:42.589Z,28.86
2024-05-09T11:46:42.528Z,29.13
2024-05-09T11:47:42.626Z,29.24
2024-05-09T11:48:42.743Z,29.42
2024-05-09T11:49:42.595Z,29.22
2024-05-09T11:50:42.597Z,29.10
2024-05-09T11:51:42.568Z,28.88
2024-05-09T11:52:42.470Z,28.78
2024-05-09T11:53:42.990Z,28.00
2024-05-09T11:54:42.486Z,27.33
2024-05-09T11:55:42.431Z,27.42
2024-05-09T11:56:42.432Z,27.25
2024-05-09T11:57:42.493Z,26.51
2024-05-09T11:58:42.408Z,26.19
2024-05-09T11:59:42.393Z,26.00
2024-05-09T12:00:42.464Z,26.25
2024-05-09T12:01:42.476Z,26.62
2024-05-09T12:02:42.415Z,26.96
2024-05-09T12:03:42.525Z,27.14
2024-05-09T12:04:42.628Z,27.37
2024-05-09T12:05:42.561Z,27.14
2024-05-09T12:06:42.377Z,27.10
2024-05-09T12:07:42.336Z,26.84
2024-05-09T12:08:42.305Z,26.22
2024-05-09T12:09:42.308Z,26.84
2024-05-09T12:10:42.478Z,27.10
2024-05-09T12:11:42.397Z,27.32
2024-05-09T12:12:42.333Z,27.92
2024-05-09T12:13:42.246Z,28.25
2024-05-09T12:14:42.253Z,28.64
2024-05-09T12:15:42.261Z,28.81
2024-05-09T12:16:42.359Z,28.81
2024-05-09T12:17:42.335Z,29.13
2024-05-09T12:18:42.289Z,29.22
2024-05-09T12:19:42.205Z,29.24
2024-05-09T12:20:42.217Z,29.45
2024-05-09T12:21:42.212Z,29.57
2024-05-09T12:22:42.149Z,29.57
2024-05-09T12:23:42.141Z,29.60
2024-05-09T12:24:42.227Z,29.66
2024-05-09T12:25:42.215Z,29.82
2024-05-09T12:26:42.153Z,30.27
2024-05-09T12:27:42.178Z,30.23
2024-05-09T12:28:42.123Z,29.87
2024-05-09T12:29:42.106Z,29.98
2024-05-09T12:30:42.263Z,30.12
2024-05-09T12:31:42.088Z,30.24
2024-05-09T12:32:42.143Z,29.75
2024-05-09T12:33:42.140Z,29.50
2024-05-09T12:34:42.122Z,28.89
2024-05-09T12:35:44.475Z,28.98
2024-05-09T12:36:42.107Z,29.35
2024-05-09T12:37:42.011Z,29.49
2024-05-09T12:38:42.001Z,29.51
2024-05-09T12:39:42.046Z,29.39
2024-05-09T12:40:42.317Z,29.24
2024-05-09T12:41:41.968Z,28.89
2024-05-09T12:42:42.072Z,29.19
2024-05-09T12:43:41.952Z,29.38
2024-05-09T12:44:41.958Z,29.71
2024-05-09T12:45:41.985Z,29.61
2024-05-09T12:46:41.931Z,29.35
2024-05-09T12:47:41.986Z,29.50
2024-05-09T12:48:42.078Z,29.32
2024-05-09T12:49:41.932Z,29.53
2024-05-09T12:50:42.239Z,29.66
2024-05-09T12:51:41.863Z,29.35
2024-05-09T12:52:41.847Z,29.54
2024-05-09T12:53:41.884Z,29.82
2024-05-09T12:54:41.862Z,30.00
2024-05-09T12:55:48.728Z,29.81
2024-05-09T12:56:41.837Z,29.71
2024-05-09T12:57:41.835Z,29.53
2024-05-09T12:58:41.825Z,28.79
2024-05-09T12:59:41.775Z,28.85
2024-05-09T13:00:41.837Z,28.76
2024-05-09T13:01:41.921Z,28.52
2024-05-09T13:02:41.917Z,28.56
2024-05-09T13:03:42.042Z,28.85
2024-05-09T13:04:41.908Z,28.89
2024-05-09T13:05:42.178Z,28.81
2024-05-09T13:06:41.757Z,28.96
2024-05-09T13:07:41.720Z,29.20
2024-05-09T13:08:41.693Z,29.24
2024-05-09T13:09:41.692Z,29.17